Kirsten H — WY7979 — position and weather

sailwx.info

Track history (hours):
 
Tides and Currents Weather Stations Pressure Air Temp Water Temp Dewpoint Dewpoint Depression Visibility Wind Speed Wind Dir Waves Ship Positions

Kirsten H

Owner: BOYER TOWING, KETCHIKAN, AK. More information available from US FCC via Universal Licensing System and Coast Guard Vessel Documentation Center.

Last reported at 2016-Sep-28 01:33 UTC. Time now 2016-Sep-30 08:20 UTC.
Position N 47°32' W 122°20'.

Length 22 m; draft 3.7 m.

Type: Tow > 200 m length. MMSI: 366623050.

Date/timePositionNaut miles runAvg speedWind from/ knotsBaromVisibWave heightAir tempDewpointWater temp
2016-Sep-28 01:33N 47°32' W 122°20'5 2.6
2016-Sep-27 23:33N 47°37' W 122°24'22 5.5
2016-Sep-27 19:33N 47°57' W 122°35'42 8.5
2016-Sep-27 14:33N 48°32' W 123°12'1010.4
2016-Sep-27 13:33N 48°42' W 123°15'17 5.8
2016-Sep-27 10:33N 48°59' W 123°18'79 7.9
2016-Sep-27 00:33N 49°49' W 124°54'124 5.6
2016-Sep-26 02:33N 50°59' W 127°34'6 6.3
2016-Sep-26 01:33N 51°04' W 127°40'6 5.7
2016-Sep-26 00:33N 51°07' W 127°48'  
2016-Sep-19 14:33N 51°06' W 127°45'9 9.4
2016-Sep-19 13:33N 50°60' W 127°34'10 9.7
2016-Sep-19 12:33N 50°54' W 127°22'9 9.2
2016-Sep-19 11:32N 50°49' W 127°09'89 8.0
2016-Sep-19 00:25N 49°60' W 125°12'40 8.3
2016-Sep-18 19:33N 49°35' W 124°24'35 8.8
2016-Sep-18 15:33N 49°15' W 123°39'6 6.2
2016-Sep-18 14:33N 49°11' W 123°32'36 9.1
2016-Sep-18 10:33N 48°47' W 122°50'9 8.8
2016-Sep-18 09:33N 48°40' W 122°43'59 8.5
2016-Sep-18 02:33N 47°41' W 122°27'7 6.9
2016-Sep-18 01:33N 47°35' W 122°22'  
Track history (hours):
 
Tides and Currents Weather Stations Pressure Air Temp Water Temp Dewpoint Dewpoint Depression Visibility Wind Speed Wind Dir Waves Ship Positions

Kirsten H

Owner: BOYER TOWING, KETCHIKAN, AK. More information available from US FCC via Universal Licensing System and Coast Guard Vessel Documentation Center.

Last reported at 2016-Sep-28 01:33 UTC. Time now 2016-Sep-30 08:20 UTC.
Position N 47°32' W 122°20'.

Length 22 m; draft 3.7 m.

Type: Tow > 200 m length. MMSI: 366623050.

Date/timePositionNaut miles runAvg speedWind from/ knotsBaromVisibWave heightAir tempDewpointWater temp
2016-Sep-28 01:33N 47°32' W 122°20'5 2.6
2016-Sep-27 23:33N 47°37' W 122°24'22 5.5
2016-Sep-27 19:33N 47°57' W 122°35'42 8.5
2016-Sep-27 14:33N 48°32' W 123°12'1010.4
2016-Sep-27 13:33N 48°42' W 123°15'17 5.8
2016-Sep-27 10:33N 48°59' W 123°18'79 7.9
2016-Sep-27 00:33N 49°49' W 124°54'124 5.6
2016-Sep-26 02:33N 50°59' W 127°34'6 6.3
2016-Sep-26 01:33N 51°04' W 127°40'6 5.7
2016-Sep-26 00:33N 51°07' W 127°48'  
2016-Sep-19 14:33N 51°06' W 127°45'9 9.4
2016-Sep-19 13:33N 50°60' W 127°34'10 9.7
2016-Sep-19 12:33N 50°54' W 127°22'9 9.2
2016-Sep-19 11:32N 50°49' W 127°09'89 8.0
2016-Sep-19 00:25N 49°60' W 125°12'40 8.3
2016-Sep-18 19:33N 49°35' W 124°24'35 8.8
2016-Sep-18 15:33N 49°15' W 123°39'6 6.2
2016-Sep-18 14:33N 49°11' W 123°32'36 9.1
2016-Sep-18 10:33N 48°47' W 122°50'9 8.8
2016-Sep-18 09:33N 48°40' W 122°43'59 8.5
2016-Sep-18 02:33N 47°41' W 122°27'7 6.9
2016-Sep-18 01:33N 47°35' W 122°22'  

Dump ship's entire track history